Time;durP1;ratioP1;P1;durP2;ratioP2;P2;SDS_P1;SDS_P2;PMS_P1;PMS_P2;Temp;Humidity;BMP_temperature;BMP_pressure;BME280_temperature;BME280_humidity;BME280_pressure;Samples;Min_cycle;Max_cycle;Signal;HPM_P1;HPM_P2
2020/12/03 00:01:05;;;;;;;56.28;36.40;;;-2.70;99.90;;;;;;4932326;28;20422;-47
2020/12/03 00:03:33;;;;;;;55.80;37.70;;;-2.70;99.90;;;;;;4931642;28;20790;-48
2020/12/03 00:06:11;;;;;;;62.67;38.85;;;-2.70;99.90;;;;;;4954560;28;20408;-47
2020/12/03 00:08:37;;;;;;;55.45;38.33;;;-2.70;99.90;;;;;;4952054;28;20420;-47
2020/12/03 00:11:03;;;;;;;58.88;37.70;;;-2.60;99.90;;;;;;4951093;28;20481;-47
2020/12/03 00:13:30;;;;;;;64.03;39.70;;;-2.60;99.90;;;;;;4930508;28;20401;-46
2020/12/03 00:15:57;;;;;;;57.35;36.40;;;-2.60;99.90;;;;;;4945849;28;20760;-47
2020/12/03 00:18:26;;;;;;;57.70;36.80;;;-2.60;99.90;;;;;;4930019;28;20460;-47
2020/12/03 00:20:52;;;;;;;60.20;36.78;;;-2.70;99.90;;;;;;4944781;28;20414;-47
2020/12/03 00:23:18;;;;;;;56.65;36.20;;;-2.70;99.90;;;;;;4946811;28;20785;-47
2020/12/03 00:25:44;;;;;;;54.25;34.03;;;-2.60;99.90;;;;;;4942954;28;20868;-46
2020/12/03 00:28:10;;;;;;;50.60;32.33;;;-2.50;99.90;;;;;;4940647;28;20516;-47
2020/12/03 00:30:35;;;;;;;57.80;36.45;;;-2.50;99.90;;;;;;4946725;28;20505;-46
2020/12/03 00:33:01;;;;;;;62.27;35.93;;;-2.50;99.90;;;;;;4946985;28;20820;-46
2020/12/03 00:35:27;;;;;;;54.90;34.67;;;-2.50;99.90;;;;;;4947173;28;20412;-44
2020/12/03 00:37:52;;;;;;;61.47;38.30;;;-2.40;99.90;;;;;;4945082;28;20877;-44
2020/12/03 00:40:18;;;;;;;64.05;38.97;;;-2.40;99.90;;;;;;4940559;28;20418;-44
2020/12/03 00:42:44;;;;;;;59.42;37.67;;;-2.40;99.90;;;;;;4929514;29;20904;-44
2020/12/03 00:45:11;;;;;;;63.63;40.43;;;-2.40;99.90;;;;;;4934686;28;20466;-47
2020/12/03 00:47:38;;;;;;;63.95;40.78;;;-2.50;99.90;;;;;;4945191;28;20414;-44
2020/12/03 00:50:04;;;;;;;56.03;35.90;;;-2.50;99.90;;;;;;4914419;28;20414;-45
2020/12/03 00:52:30;;;;;;;56.92;36.15;;;-2.50;99.90;;;;;;4929150;28;20402;-45
2020/12/03 00:54:57;;;;;;;65.40;38.17;;;-2.50;99.90;;;;;;4938093;28;20472;-45
2020/12/03 00:57:23;;;;;;;63.58;39.03;;;-2.40;99.90;;;;;;4943106;28;20406;-47
2020/12/03 00:59:49;;;;;;;61.47;38.40;;;-2.40;99.90;;;;;;4932309;28;20408;-46
2020/12/03 01:02:15;;;;;;;60.40;39.53;;;-2.40;99.90;;;;;;4947543;28;20405;-46
2020/12/03 01:04:41;;;;;;;68.47;42.35;;;-2.40;99.90;;;;;;4949012;28;20398;-44
2020/12/03 01:07:07;;;;;;;65.20;42.58;;;-2.40;99.90;;;;;;4930640;28;20547;-47
2020/12/03 01:09:35;;;;;;;66.33;40.77;;;-2.40;99.90;;;;;;4948776;28;20468;-43
2020/12/03 01:12:01;;;;;;;57.38;37.40;;;-2.50;99.90;;;;;;4948249;28;20764;-45
2020/12/03 01:14:26;;;;;;;62.00;36.83;;;-2.50;99.90;;;;;;4941119;28;20823;-51
2020/12/03 01:16:52;;;;;;;60.57;38.80;;;-2.50;99.90;;;;;;4962169;28;20975;-46
2020/12/03 01:19:18;;;;;;;72.65;40.70;;;-2.50;99.90;;;;;;4947532;28;20944;-45
2020/12/03 01:21:43;;;;;;;66.07;39.77;;;-2.50;99.90;;;;;;4947991;28;20880;-47
2020/12/03 01:24:09;;;;;;;70.23;42.43;;;-2.50;99.90;;;;;;4938988;28;20902;-47
2020/12/03 01:26:35;;;;;;;62.80;39.85;;;-2.50;99.90;;;;;;4949333;28;20439;-44
2020/12/03 01:29:00;;;;;;;64.43;40.00;;;-2.50;99.90;;;;;;4947775;28;21007;-44
2020/12/03 01:31:31;;;;;;;59.72;36.35;;;-2.40;99.90;;;;;;4949798;28;20935;-45
2020/12/03 01:33:58;;;;;;;60.17;37.70;;;-2.40;99.90;;;;;;4948150;28;20703;-45
2020/12/03 01:36:23;;;;;;;63.30;39.83;;;-2.40;99.90;;;;;;4943231;28;20418;-46
2020/12/03 01:38:49;;;;;;;60.50;37.70;;;-2.40;99.90;;;;;;4947712;28;20402;-45
2020/12/03 01:41:15;;;;;;;62.17;36.33;;;-2.40;99.90;;;;;;4949056;28;20406;-47
2020/12/03 01:43:42;;;;;;;63.93;37.93;;;-2.50;99.90;;;;;;4948280;28;20401;-44
2020/12/03 01:46:07;;;;;;;65.90;39.03;;;-2.50;99.90;;;;;;4948222;28;20422;-46
2020/12/03 01:48:46;;;;;;;63.57;37.40;;;-2.40;99.90;;;;;;4949950;28;20414;-45
2020/12/03 01:51:38;;;;;;;67.13;41.28;;;-2.50;99.90;;;;;;4944998;28;20414;-45
2020/12/03 01:54:09;;;;;;;69.67;44.50;;;-2.50;99.90;;;;;;4932630;28;20494;-49
2020/12/03 01:56:58;;;;;;;68.80;40.33;;;-2.50;99.90;;;;;;4932175;28;20428;-47
2020/12/03 01:59:26;;;;;;;63.70;38.70;;;-2.50;99.90;;;;;;4943014;28;20564;-44
2020/12/03 02:01:51;;;;;;;61.25;37.95;;;-2.60;99.90;;;;;;4929362;28;20409;-44
2020/12/03 02:04:17;;;;;;;73.47;43.22;;;-2.50;99.90;;;;;;4946867;28;20406;-46
2020/12/03 02:06:43;;;;;;;68.67;42.10;;;-2.60;99.90;;;;;;4948504;28;20402;-46
2020/12/03 02:09:10;;;;;;;63.83;38.57;;;-2.60;99.90;;;;;;4949245;28;20508;-47
2020/12/03 02:11:35;;;;;;;64.22;42.28;;;-2.60;99.90;;;;;;4934784;28;20739;-46
2020/12/03 02:14:04;;;;;;;69.88;41.53;;;-2.60;99.90;;;;;;4948983;28;20424;-46
2020/12/03 02:16:35;;;;;;;64.30;37.53;;;-2.50;99.90;;;;;;4946519;28;20429;-47
2020/12/03 02:19:01;;;;;;;66.93;39.92;;;-2.50;99.90;;;;;;4930315;29;20403;-46
2020/12/03 02:21:26;;;;;;;64.37;37.43;;;-2.50;99.90;;;;;;4944954;28;20417;-46
2020/12/03 02:23:52;;;;;;;68.13;37.78;;;-2.50;99.90;;;;;;4946233;28;20442;-46
2020/12/03 02:26:18;;;;;;;62.75;39.10;;;-2.50;99.90;;;;;;4930704;28;20467;-47
2020/12/03 02:28:44;;;;;;;61.95;37.72;;;-2.50;99.90;;;;;;4948585;28;21088;-47
2020/12/03 02:31:09;;;;;;;67.73;40.43;;;-2.50;99.90;;;;;;4946372;28;20414;-48
2020/12/03 02:33:35;;;;;;;63.28;39.30;;;-2.50;99.90;;;;;;4945813;28;20414;-47
2020/12/03 02:36:01;;;;;;;65.40;38.67;;;-2.50;99.90;;;;;;4929857;29;20422;-47
2020/12/03 02:38:29;;;;;;;63.25;38.80;;;-2.60;99.90;;;;;;4946740;28;20409;-47
2020/12/03 02:40:56;;;;;;;63.20;38.75;;;-2.60;99.90;;;;;;4931293;28;20410;-47
2020/12/03 02:43:22;;;;;;;69.07;40.40;;;-2.60;99.90;;;;;;4947606;28;20475;-47
2020/12/03 02:45:48;;;;;;;62.40;39.47;;;-2.60;99.90;;;;;;4947840;28;20418;-47
2020/12/03 02:48:13;;;;;;;65.07;39.97;;;-2.50;99.90;;;;;;4948094;28;20467;-46
2020/12/03 02:50:39;;;;;;;70.83;39.90;;;-2.50;99.90;;;;;;4940703;28;20816;-47
2020/12/03 02:53:05;;;;;;;63.37;38.13;;;-2.50;99.90;;;;;;4947281;28;20414;-47
2020/12/03 02:55:30;;;;;;;59.63;36.15;;;-2.50;99.90;;;;;;4924367;28;20761;-46
2020/12/03 02:57:56;;;;;;;66.37;39.20;;;-2.50;99.90;;;;;;4943735;28;20406;-46
2020/12/03 03:00:21;;;;;;;68.03;38.90;;;-2.40;99.90;;;;;;4948035;28;20448;-45
2020/12/03 03:02:48;;;;;;;66.68;38.15;;;-2.50;99.90;;;;;;4947860;28;21019;-46
2020/12/03 03:05:14;;;;;;;68.82;39.70;;;-2.50;99.90;;;;;;4945130;28;20418;-46
2020/12/03 03:07:39;;;;;;;64.93;39.97;;;-2.40;99.90;;;;;;4947058;28;20425;-46
2020/12/03 03:10:05;;;;;;;61.83;36.67;;;-2.50;99.90;;;;;;4946751;28;20456;-44
2020/12/03 03:12:31;;;;;;;62.00;38.03;;;-2.40;99.90;;;;;;4948112;28;20413;-45
2020/12/03 03:14:56;;;;;;;63.92;38.15;;;-2.40;99.90;;;;;;4934645;28;20405;-46
2020/12/03 03:17:22;;;;;;;62.55;37.40;;;-2.40;99.90;;;;;;4947255;28;20558;-46
2020/12/03 03:19:47;;;;;;;54.23;34.43;;;-2.40;99.90;;;;;;4947656;28;20897;-47
2020/12/03 03:22:13;;;;;;;60.90;36.35;;;-2.40;99.90;;;;;;4930843;29;20925;-44
2020/12/03 03:24:39;;;;;;;66.28;36.13;;;-2.40;99.90;;;;;;4945239;28;21024;-44
2020/12/03 03:27:04;;;;;;;65.97;37.63;;;-2.40;99.90;;;;;;4913941;29;20457;-45
2020/12/03 03:29:30;;;;;;;58.20;35.67;;;-2.40;99.90;;;;;;4945238;28;20506;-45
2020/12/03 03:31:56;;;;;;;57.15;34.90;;;-2.30;99.90;;;;;;4930773;28;20852;-46
2020/12/03 03:34:22;;;;;;;68.85;37.88;;;-2.30;99.90;;;;;;4947157;28;20410;-45
2020/12/03 03:36:47;;;;;;;66.33;35.67;;;-2.20;99.90;;;;;;4947189;28;20418;-48
2020/12/03 03:39:17;;;;;;;60.15;36.58;;;-2.20;99.90;;;;;;4946436;28;20398;-46
2020/12/03 03:41:43;;;;;;;61.05;35.10;;;-2.20;99.90;;;;;;4942456;28;20913;-47
2020/12/03 03:44:09;;;;;;;54.22;34.17;;;-2.20;99.90;;;;;;4945735;28;20421;-47
2020/12/03 03:46:34;;;;;;;55.85;32.60;;;-2.20;99.90;;;;;;4946590;28;20508;-47
2020/12/03 03:49:00;;;;;;;55.63;33.93;;;-2.10;99.90;;;;;;4942981;28;20396;-47
2020/12/03 03:51:26;;;;;;;56.87;33.90;;;-2.10;99.90;;;;;;4930098;29;20418;-46
2020/12/03 03:53:52;;;;;;;58.90;34.72;;;-2.10;99.90;;;;;;4942414;28;20445;-46
2020/12/03 03:56:17;;;;;;;58.65;33.53;;;-2.10;99.90;;;;;;4946450;28;20481;-45
2020/12/03 03:58:43;;;;;;;48.07;29.07;;;-2.10;99.90;;;;;;4945638;28;20425;-45
2020/12/03 04:01:09;;;;;;;60.23;34.60;;;-2.00;99.90;;;;;;4947149;28;20421;-46
2020/12/03 04:03:34;;;;;;;53.80;33.10;;;-2.00;99.90;;;;;;4937627;28;20910;-47
2020/12/03 04:06:00;;;;;;;51.90;31.43;;;-2.00;99.90;;;;;;4942671;28;20737;-48
2020/12/03 04:08:26;;;;;;;49.20;30.97;;;-2.00;99.90;;;;;;4943186;28;20429;-47
2020/12/03 04:10:52;;;;;;;49.22;30.90;;;-2.00;99.90;;;;;;4945301;28;20414;-47
2020/12/03 04:13:19;;;;;;;46.85;30.27;;;-2.00;99.90;;;;;;4946306;28;20422;-47
2020/12/03 04:15:44;;;;;;;56.40;32.65;;;-1.90;99.90;;;;;;4940910;28;20410;-47
2020/12/03 04:18:10;;;;;;;47.00;31.13;;;-2.00;99.90;;;;;;4946082;28;20429;-47
2020/12/03 04:20:36;;;;;;;48.47;29.47;;;-2.00;99.90;;;;;;4943617;28;20973;-47
2020/12/03 04:23:02;;;;;;;56.45;33.72;;;-1.90;99.90;;;;;;4917904;28;20979;-47
2020/12/03 04:25:27;;;;;;;55.85;32.97;;;-1.90;99.90;;;;;;4941260;28;20396;-47
2020/12/03 04:27:53;;;;;;;51.00;31.65;;;-1.90;99.90;;;;;;4945186;28;20409;-46
2020/12/03 04:30:19;;;;;;;52.67;31.80;;;-2.00;99.90;;;;;;4945260;28;20476;-46
2020/12/03 04:32:44;;;;;;;50.20;31.87;;;-1.90;99.90;;;;;;4946938;28;20402;-46
2020/12/03 04:35:10;;;;;;;53.45;31.17;;;-1.90;99.90;;;;;;4950228;28;20476;-47
2020/12/03 04:37:36;;;;;;;58.05;31.23;;;-2.00;99.90;;;;;;4949541;28;20987;-46
2020/12/03 04:40:04;;;;;;;55.17;34.38;;;-2.00;99.90;;;;;;4948438;28;20983;-47
2020/12/03 04:42:31;;;;;;;53.17;34.42;;;-2.00;99.90;;;;;;4949081;28;20645;-47
2020/12/03 04:45:21;;;;;;;52.92;32.38;;;-2.00;99.90;;;;;;4948979;28;20402;-47
2020/12/03 04:48:14;;;;;;;49.28;27.38;;;-2.00;99.90;;;;;;4951928;28;20406;-48
2020/12/03 04:51:13;;;;;;;57.28;33.35;;;-2.00;99.90;;;;;;4950900;28;20927;-47
2020/12/03 04:53:42;;;;;;;56.13;31.13;;;-2.00;99.90;;;;;;4949786;28;20480;-47
2020/12/03 04:56:15;;;;;;;44.28;27.42;;;-1.90;99.90;;;;;;4932962;28;20432;-45
2020/12/03 04:58:46;;;;;;;44.87;28.63;;;-1.90;99.90;;;;;;4932382;28;20462;-45
2020/12/03 05:01:42;;;;;;;54.55;32.85;;;-1.90;99.90;;;;;;4938535;28;20406;-44
2020/12/03 05:04:33;;;;;;;50.25;29.95;;;-1.90;99.90;;;;;;4943379;28;20861;-44
2020/12/03 05:07:01;;;;;;;46.47;30.08;;;-1.90;99.90;;;;;;4948490;28;20412;-47
2020/12/03 05:09:45;;;;;;;53.93;31.03;;;-1.90;99.90;;;;;;4931926;29;20563;-47
2020/12/03 05:12:17;;;;;;;44.60;27.37;;;-1.80;99.90;;;;;;4949397;28;20402;-47
2020/12/03 05:14:53;;;;;;;54.65;32.53;;;-1.80;99.90;;;;;;4931525;28;20465;-46
2020/12/03 05:17:40;;;;;;;51.33;31.83;;;-1.80;99.90;;;;;;4929634;28;20414;-47
2020/12/03 05:20:31;;;;;;;50.13;29.92;;;-1.80;99.90;;;;;;4944201;28;20441;-49
2020/12/03 05:23:15;;;;;;;51.70;30.95;;;-1.80;99.90;;;;;;4931851;28;20437;-47
2020/12/03 05:25:41;;;;;;;46.47;30.63;;;-1.80;99.90;;;;;;4929477;28;20429;-46
2020/12/03 05:28:26;;;;;;;58.95;31.67;;;-1.80;99.90;;;;;;4948853;28;20410;-45
2020/12/03 05:30:53;;;;;;;51.95;33.88;;;-1.80;99.90;;;;;;4948100;28;20426;-47
2020/12/03 05:33:19;;;;;;;58.45;32.95;;;-1.80;99.90;;;;;;4928983;28;20937;-47
2020/12/03 05:35:45;;;;;;;46.73;29.40;;;-1.90;99.90;;;;;;4946140;28;20443;-47
2020/12/03 05:38:17;;;;;;;53.75;33.33;;;-1.80;99.90;;;;;;4931535;28;20456;-47
2020/12/03 05:40:45;;;;;;;53.65;32.20;;;-1.90;99.90;;;;;;4944379;28;20396;-47
2020/12/03 05:43:10;;;;;;;50.85;31.40;;;-1.90;99.90;;;;;;4930897;28;20424;-46
2020/12/03 05:45:36;;;;;;;56.70;32.78;;;-1.80;99.90;;;;;;4930774;28;20408;-47
2020/12/03 05:48:04;;;;;;;57.80;34.30;;;-1.80;99.90;;;;;;4947934;28;20413;-46
2020/12/03 05:50:32;;;;;;;46.80;27.65;;;-1.80;99.90;;;;;;4947459;28;20488;-44
2020/12/03 05:53:08;;;;;;;49.00;31.58;;;-1.80;99.90;;;;;;4946645;28;20418;-46
2020/12/03 05:55:34;;;;;;;58.30;34.35;;;-1.80;99.90;;;;;;4946761;28;20402;-44
2020/12/03 05:58:21;;;;;;;46.17;29.30;;;-1.80;99.90;;;;;;4929132;28;20415;-45
2020/12/03 06:00:47;;;;;;;53.67;31.47;;;-1.80;99.90;;;;;;4946010;28;20426;-46
2020/12/03 06:03:30;;;;;;;55.63;33.53;;;-1.80;99.90;;;;;;4945889;28;20400;-48
2020/12/03 06:05:56;;;;;;;55.00;32.60;;;-1.80;99.90;;;;;;4921012;28;20416;-47
2020/12/03 06:08:46;;;;;;;66.28;39.60;;;-1.80;99.90;;;;;;4947234;28;20777;-48
2020/12/03 06:11:36;;;;;;;75.95;45.65;;;-1.80;99.90;;;;;;4960408;28;20488;-47
2020/12/03 06:14:20;;;;;;;62.15;37.20;;;-1.80;99.90;;;;;;4944195;28;20500;-46
2020/12/03 06:16:53;;;;;;;69.40;40.63;;;-1.80;99.90;;;;;;4942791;28;20888;-46
2020/12/03 06:19:31;;;;;;;66.83;40.23;;;-1.80;99.90;;;;;;4932332;29;20383;-46
2020/12/03 06:22:18;;;;;;;62.90;37.50;;;-1.80;99.90;;;;;;4961643;28;20475;-46
2020/12/03 06:25:11;;;;;;;54.93;34.43;;;-1.80;99.90;;;;;;4957450;28;20918;-46
2020/12/03 06:27:56;;;;;;;61.33;35.70;;;-1.80;99.90;;;;;;4943636;28;20428;-46
2020/12/03 06:30:27;;;;;;;54.53;32.08;;;-1.80;99.90;;;;;;4947675;28;20409;-44
2020/12/03 06:33:10;;;;;;;54.97;31.15;;;-1.80;99.90;;;;;;4931301;28;20414;-44
2020/12/03 06:35:45;;;;;;;51.93;31.97;;;-1.80;99.90;;;;;;4947875;28;20417;-46
2020/12/03 06:38:14;;;;;;;52.80;30.47;;;-1.80;99.90;;;;;;4916297;28;20476;-45
2020/12/03 06:40:42;;;;;;;49.97;28.95;;;-1.80;99.90;;;;;;4947005;28;20401;-46
2020/12/03 06:43:26;;;;;;;53.60;31.30;;;-1.80;99.90;;;;;;4931361;28;20413;-45
2020/12/03 06:46:11;;;;;;;53.47;31.10;;;-1.80;99.90;;;;;;4931732;28;20409;-43
2020/12/03 06:49:01;;;;;;;51.95;31.63;;;-1.80;99.90;;;;;;4932726;28;20904;-47
2020/12/03 06:52:03;;;;;;;52.53;33.17;;;-1.70;99.90;;;;;;4944384;28;20461;-46
2020/12/03 06:55:05;;;;;;;47.03;28.77;;;-1.70;99.90;;;;;;4947016;28;20456;-46
2020/12/03 06:57:35;;;;;;;48.78;31.65;;;-1.70;99.90;;;;;;4936214;28;20877;-44
2020/12/03 07:00:04;;;;;;;45.05;28.05;;;-1.70;99.90;;;;;;4942046;28;20409;-47
2020/12/03 07:03:04;;;;;;;55.72;33.13;;;-1.70;99.90;;;;;;4946468;28;20410;-46
2020/12/03 07:05:47;;;;;;;47.40;30.00;;;-1.70;99.90;;;;;;4943341;28;20469;-48
2020/12/03 07:08:38;;;;;;;47.17;28.70;;;-1.70;99.90;;;;;;4932278;29;20405;-48
2020/12/03 07:11:28;;;;;;;44.00;26.48;;;-1.70;99.90;;;;;;4948079;28;20394;-48
2020/12/03 07:14:24;;;;;;;48.80;30.00;;;-1.60;99.90;;;;;;4946104;28;20390;-46
2020/12/03 07:17:23;;;;;;;50.72;29.75;;;-1.60;99.90;;;;;;4946196;28;20773;-47
2020/12/03 07:20:13;;;;;;;51.88;31.10;;;-1.60;99.90;;;;;;4931212;29;20457;-47
2020/12/03 07:22:48;;;;;;;43.70;28.15;;;-1.60;99.90;;;;;;4944928;28;20406;-47
2020/12/03 07:25:14;;;;;;;47.72;30.55;;;-1.60;99.90;;;;;;4913663;28;20529;-47
2020/12/03 07:28:07;;;;;;;48.23;28.83;;;-1.50;99.90;;;;;;4946535;28;20864;-47
2020/12/03 07:30:54;;;;;;;53.00;30.73;;;-1.50;99.90;;;;;;4943760;28;20805;-45
2020/12/03 07:33:19;;;;;;;44.17;28.08;;;-1.50;99.90;;;;;;4940161;28;20406;-47
2020/12/03 07:36:13;;;;;;;44.67;26.30;;;-1.50;99.90;;;;;;4940037;28;21071;-46
2020/12/03 07:38:41;;;;;;;45.80;30.17;;;-1.40;99.90;;;;;;4927551;28;20763;-46
2020/12/03 07:41:12;;;;;;;55.83;30.13;;;-1.40;99.90;;;;;;4930381;28;20406;-47
2020/12/03 07:43:38;;;;;;;46.67;29.10;;;-1.40;99.90;;;;;;4929542;28;20421;-45
2020/12/03 07:46:26;;;;;;;47.20;29.10;;;-1.40;99.90;;;;;;4946016;28;20901;-46
2020/12/03 07:48:52;;;;;;;49.72;30.20;;;-1.40;99.90;;;;;;4951210;28;20413;-47
2020/12/03 07:51:18;;;;;;;46.97;28.40;;;-1.30;99.90;;;;;;4940892;28;20809;-45
2020/12/03 07:53:44;;;;;;;42.30;26.98;;;-1.30;99.90;;;;;;4929895;28;20892;-46
2020/12/03 07:56:29;;;;;;;43.03;26.10;;;-1.30;99.90;;;;;;4938209;28;20435;-47
2020/12/03 07:58:55;;;;;;;41.80;25.02;;;-1.30;99.90;;;;;;4944797;28;20418;-47
2020/12/03 08:01:20;;;;;;;46.53;28.55;;;-1.30;99.90;;;;;;4928873;28;20919;-47
2020/12/03 08:03:47;;;;;;;40.27;25.23;;;-1.10;99.90;;;;;;4945907;28;20782;-47
2020/12/03 08:06:29;;;;;;;43.13;27.95;;;-1.10;99.90;;;;;;4944702;28;20809;-48
2020/12/03 08:09:04;;;;;;;38.70;25.23;;;-1.10;99.90;;;;;;4927332;28;21048;-45
2020/12/03 08:11:41;;;;;;;45.13;28.00;;;-1.00;99.90;;;;;;4944790;28;20409;-47
2020/12/03 08:14:28;;;;;;;46.40;27.85;;;-1.10;99.90;;;;;;4945023;28;20595;-45
2020/12/03 08:16:54;;;;;;;51.30;30.20;;;-1.00;99.90;;;;;;4947129;28;20770;-47
2020/12/03 08:19:34;;;;;;;44.00;27.85;;;-1.00;99.90;;;;;;4946184;28;20412;-44
2020/12/03 08:21:59;;;;;;;46.28;27.60;;;-1.00;99.90;;;;;;4946787;28;20402;-45
2020/12/03 08:24:27;;;;;;;42.33;27.40;;;-1.00;99.90;;;;;;4944542;28;20414;-44
2020/12/03 08:26:59;;;;;;;39.85;26.63;;;-1.00;99.90;;;;;;4945726;28;20417;-45
2020/12/03 08:29:36;;;;;;;45.35;26.52;;;-1.00;99.90;;;;;;4937307;28;20410;-47
2020/12/03 08:32:02;;;;;;;43.87;25.57;;;-0.90;99.90;;;;;;4937471;28;20466;-47
2020/12/03 08:34:35;;;;;;;45.87;28.00;;;-0.80;99.90;;;;;;4946023;28;20905;-45
2020/12/03 08:37:02;;;;;;;42.58;26.38;;;-0.80;99.90;;;;;;4928950;28;20416;-49
2020/12/03 08:39:27;;;;;;;49.25;29.95;;;-0.80;99.90;;;;;;4929939;28;20464;-43
2020/12/03 08:41:53;;;;;;;46.97;28.50;;;-0.70;99.90;;;;;;4944346;28;20401;-47
2020/12/03 08:44:19;;;;;;;41.20;27.57;;;-0.80;99.90;;;;;;4928422;28;20410;-49
2020/12/03 08:46:45;;;;;;;42.67;27.40;;;-0.70;99.90;;;;;;4945188;28;20477;-46
2020/12/03 08:49:18;;;;;;;44.83;28.92;;;-0.70;99.90;;;;;;4944683;28;20413;-47
2020/12/03 08:51:50;;;;;;;47.25;29.30;;;-0.70;99.90;;;;;;4945366;29;20412;-47
2020/12/03 08:54:23;;;;;;;51.65;29.05;;;-0.70;99.90;;;;;;4946441;28;20406;-46
2020/12/03 08:56:48;;;;;;;45.53;27.38;;;-0.70;99.90;;;;;;4944784;28;20442;-48
2020/12/03 08:59:18;;;;;;;48.90;29.83;;;-0.60;99.90;;;;;;4928349;28;20406;-46
2020/12/03 09:01:48;;;;;;;50.20;30.90;;;-0.60;99.90;;;;;;4944102;28;20515;-47
2020/12/03 09:04:20;;;;;;;47.23;30.07;;;-0.60;99.90;;;;;;4945718;28;20445;-47
2020/12/03 09:06:48;;;;;;;41.58;25.35;;;-0.60;99.90;;;;;;4945047;28;20414;-47
2020/12/03 09:09:21;;;;;;;40.75;24.42;;;-0.60;99.90;;;;;;4929311;28;20410;-48
2020/12/03 09:11:47;;;;;;;47.95;29.40;;;-0.50;99.90;;;;;;4927440;28;20410;-47
2020/12/03 09:14:13;;;;;;;40.63;26.50;;;-0.50;99.90;;;;;;4960070;28;20404;-47
2020/12/03 09:16:38;;;;;;;46.13;28.77;;;-0.50;99.90;;;;;;4945586;28;20463;-48
2020/12/03 09:19:04;;;;;;;40.10;27.83;;;-0.40;99.90;;;;;;4929905;28;20398;-47
2020/12/03 09:21:30;;;;;;;39.90;25.33;;;-0.40;99.90;;;;;;4949158;28;20402;-46
2020/12/03 09:23:56;;;;;;;44.50;27.77;;;-0.40;99.90;;;;;;4947652;28;20417;-47
2020/12/03 09:26:31;;;;;;;46.55;26.77;;;-0.30;99.90;;;;;;4943624;28;20850;-46
2020/12/03 09:28:57;;;;;;;46.10;29.02;;;-0.30;99.90;;;;;;4946468;28;20406;-47
2020/12/03 09:31:24;;;;;;;48.07;27.93;;;-0.30;99.90;;;;;;4941590;28;20918;-45
2020/12/03 09:33:50;;;;;;;42.47;25.88;;;-0.30;99.90;;;;;;4928857;28;20422;-46
2020/12/03 09:36:15;;;;;;;41.33;25.55;;;-0.30;99.90;;;;;;4939988;28;20413;-47
2020/12/03 09:38:41;;;;;;;40.45;25.15;;;-0.30;99.90;;;;;;4948243;28;20398;-45
2020/12/03 09:41:08;;;;;;;44.75;28.02;;;-0.20;99.90;;;;;;4931721;29;20398;-47
2020/12/03 09:43:34;;;;;;;36.15;23.30;;;-0.10;99.90;;;;;;4947375;28;20410;-46
2020/12/03 09:46:00;;;;;;;42.92;26.25;;;-0.20;99.90;;;;;;4932611;28;20413;-46
2020/12/03 09:48:27;;;;;;;46.05;27.10;;;-0.10;99.90;;;;;;4932194;28;20394;-46
2020/12/03 09:50:52;;;;;;;46.00;26.10;;;-0.10;99.90;;;;;;4949290;28;20460;-45
2020/12/03 09:53:19;;;;;;;40.78;24.55;;;-0.10;99.90;;;;;;4945702;28;20398;-45
2020/12/03 09:55:45;;;;;;;37.47;24.33;;;0.00;99.90;;;;;;4946539;28;21022;-46
2020/12/03 09:58:11;;;;;;;41.70;25.73;;;0.00;99.90;;;;;;4948664;28;20529;-45
2020/12/03 10:00:40;;;;;;;38.53;25.53;;;0.00;99.90;;;;;;4950592;28;20488;-47
2020/12/03 10:03:25;;;;;;;39.10;24.93;;;0.00;99.90;;;;;;4939274;28;20414;-46
2020/12/03 10:06:32;;;;;;;40.55;25.17;;;0.10;99.90;;;;;;4947049;28;20402;-45
2020/12/03 10:09:27;;;;;;;41.60;24.85;;;0.10;99.90;;;;;;4926236;29;20422;-47
2020/12/03 10:12:01;;;;;;;41.30;27.23;;;0.10;99.90;;;;;;4927448;29;20399;-45
2020/12/03 10:14:53;;;;;;;43.47;27.10;;;0.10;99.90;;;;;;4950382;28;20936;-47
2020/12/03 10:17:18;;;;;;;41.30;26.53;;;0.10;99.90;;;;;;4961641;28;20901;-45
2020/12/03 10:19:45;;;;;;;46.40;28.97;;;0.10;99.90;;;;;;4945310;28;20601;-46
2020/12/03 10:22:34;;;;;;;38.60;25.50;;;0.10;99.90;;;;;;4948018;28;20773;-44
2020/12/03 10:25:18;;;;;;;43.85;27.33;;;0.00;99.90;;;;;;4939938;28;20414;-47
2020/12/03 10:27:59;;;;;;;43.58;26.77;;;0.00;99.90;;;;;;4946821;28;20441;-45
2020/12/03 10:30:36;;;;;;;46.05;28.67;;;0.00;99.90;;;;;;4952228;28;20442;-47
2020/12/03 10:33:04;;;;;;;39.90;26.33;;;0.00;99.90;;;;;;4946221;28;20440;-44
2020/12/03 10:35:29;;;;;;;43.40;26.92;;;-0.10;99.90;;;;;;4928888;28;20418;-44
2020/12/03 10:37:57;;;;;;;45.70;28.70;;;0.00;99.90;;;;;;4915552;29;20406;-45
2020/12/03 10:40:22;;;;;;;44.67;27.27;;;0.00;99.90;;;;;;4930681;28;20931;-46
2020/12/03 10:42:52;;;;;;;38.23;24.63;;;0.00;99.90;;;;;;4915646;29;20980;-47
2020/12/03 10:45:22;;;;;;;41.95;26.88;;;0.00;99.90;;;;;;4946560;28;20417;-48
2020/12/03 10:48:07;;;;;;;45.97;28.98;;;0.00;99.90;;;;;;4916482;28;20398;-46
2020/12/03 10:51:07;;;;;;;38.30;26.48;;;0.00;99.90;;;;;;4959748;28;20449;-47
2020/12/03 10:53:32;;;;;;;42.20;28.48;;;0.10;99.90;;;;;;4948117;28;20417;-48
2020/12/03 10:56:08;;;;;;;42.57;28.80;;;0.00;99.90;;;;;;4928953;29;20406;-47
2020/12/03 10:58:56;;;;;;;42.67;27.70;;;0.00;99.90;;;;;;4945025;28;20425;-45
2020/12/03 11:01:23;;;;;;;47.40;29.92;;;0.00;99.90;;;;;;4928191;28;20895;-43
2020/12/03 11:03:53;;;;;;;45.55;29.98;;;0.00;99.90;;;;;;4927839;28;20406;-46
2020/12/03 11:06:23;;;;;;;49.22;28.55;;;0.00;99.90;;;;;;4931616;28;20417;-44
2020/12/03 11:08:48;;;;;;;45.78;30.30;;;-0.10;99.90;;;;;;4945417;28;20943;-44
2020/12/03 11:11:14;;;;;;;41.00;25.08;;;-0.10;99.90;;;;;;4947639;28;20539;-47
2020/12/03 11:13:41;;;;;;;46.78;28.55;;;0.00;99.90;;;;;;4931058;29;20405;-45
2020/12/03 11:16:07;;;;;;;45.77;27.77;;;0.00;99.90;;;;;;4910400;28;20429;-45
2020/12/03 11:18:47;;;;;;;51.57;28.87;;;0.00;99.90;;;;;;4946482;28;20397;-45
2020/12/03 11:21:19;;;;;;;45.45;27.73;;;0.00;99.90;;;;;;4946099;28;20417;-45
2020/12/03 11:24:04;;;;;;;40.58;27.70;;;0.10;99.90;;;;;;4941310;28;20408;-45
2020/12/03 11:26:32;;;;;;;49.20;31.33;;;0.10;99.90;;;;;;4935436;28;20404;-45
2020/12/03 11:29:09;;;;;;;47.45;27.00;;;0.10;99.90;;;;;;4945690;28;20412;-45
2020/12/03 11:31:35;;;;;;;45.50;27.67;;;0.10;99.90;;;;;;4944190;28;20926;-45
2020/12/03 11:34:00;;;;;;;43.70;28.65;;;0.10;99.90;;;;;;4942235;28;20801;-44
2020/12/03 11:36:34;;;;;;;45.17;27.73;;;0.10;99.90;;;;;;4941266;28;20422;-46
2020/12/03 11:39:02;;;;;;;47.58;27.77;;;0.10;99.90;;;;;;4943316;28;20410;-46
2020/12/03 11:41:40;;;;;;;43.10;26.13;;;0.10;99.90;;;;;;4933330;28;21012;-45
2020/12/03 11:49:27;;;;;;;44.67;26.60;;;0.10;99.90;;;;;;4941718;28;20402;-48
2020/12/03 11:51:53;;;;;;;46.05;30.27;;;0.10;99.90;;;;;;4944663;28;20465;-47
2020/12/03 11:54:26;;;;;;;40.53;26.23;;;0.10;99.90;;;;;;4929593;29;20817;-46
2020/12/03 11:56:54;;;;;;;36.15;23.90;;;0.20;99.90;;;;;;4944131;28;20570;-45
2020/12/03 11:59:21;;;;;;;38.72;23.52;;;0.20;99.90;;;;;;4946115;28;20414;-46
2020/12/03 12:01:53;;;;;;;36.92;24.42;;;0.30;99.90;;;;;;4929783;28;20414;-46
2020/12/03 12:04:23;;;;;;;36.58;24.50;;;0.30;99.90;;;;;;4933588;28;20450;-44
2020/12/03 12:09:45;;;;;;;35.20;23.30;;;0.40;99.90;;;;;;4945561;28;20466;-45
2020/12/03 12:12:12;;;;;;;37.03;23.27;;;0.40;99.90;;;;;;4940728;28;20781;-44
2020/12/03 12:14:38;;;;;;;37.83;23.08;;;0.50;99.90;;;;;;4934563;28;20541;-46
2020/12/03 12:17:03;;;;;;;40.97;25.02;;;0.60;99.90;;;;;;4942258;28;20445;-47
2020/12/03 12:19:30;;;;;;;37.28;23.10;;;0.60;99.90;;;;;;4944015;28;20401;-44
2020/12/03 12:21:57;;;;;;;39.88;27.70;;;0.70;99.90;;;;;;4945739;28;20698;-47
2020/12/03 12:24:22;;;;;;;45.95;30.25;;;0.60;99.90;;;;;;4936599;28;20550;-46
2020/12/03 12:26:49;;;;;;;48.58;31.33;;;0.70;99.90;;;;;;4946814;28;20481;-44
2020/12/03 12:29:14;;;;;;;40.90;25.40;;;0.70;99.90;;;;;;4945340;28;22075;-46
2020/12/03 12:31:40;;;;;;;46.80;28.05;;;0.70;99.90;;;;;;4944106;28;20433;-45
2020/12/03 12:34:05;;;;;;;43.03;24.57;;;0.70;99.90;;;;;;4942723;28;20414;-46
2020/12/03 12:36:31;;;;;;;34.10;22.73;;;0.60;99.90;;;;;;4943441;28;20568;-46
2020/12/03 12:38:57;;;;;;;32.90;22.15;;;0.60;99.90;;;;;;4942083;28;20579;-47
2020/12/03 12:41:22;;;;;;;34.17;20.37;;;0.70;99.90;;;;;;4950258;28;20401;-47
2020/12/03 12:43:48;;;;;;;35.83;22.58;;;0.70;99.90;;;;;;4935868;28;20398;-47
2020/12/03 12:46:20;;;;;;;35.27;23.43;;;0.70;99.90;;;;;;4938724;28;20827;-47
2020/12/03 12:48:45;;;;;;;43.00;26.38;;;0.70;99.90;;;;;;4945900;28;20588;-46
2020/12/03 12:51:11;;;;;;;35.17;23.95;;;0.90;99.90;;;;;;4946595;28;20896;-47
2020/12/03 12:53:37;;;;;;;33.55;21.00;;;0.80;99.90;;;;;;4947306;28;20547;-45
2020/12/03 12:56:02;;;;;;;35.80;20.93;;;0.80;99.90;;;;;;4932260;28;20421;-46